createdAt,value
2022-08-27T00:00:37.700Z,9.07
2022-08-27T00:03:09.088Z,8.77
2022-08-27T00:05:41.213Z,9.98
2022-08-27T00:08:13.569Z,9.43
2022-08-27T00:10:45.008Z,9.98
2022-08-27T00:13:16.505Z,9.73
2022-08-27T00:15:48.209Z,8.82
2022-08-27T00:18:22.803Z,9.52
2022-08-27T00:20:54.348Z,8.23
2022-08-27T00:23:25.762Z,8.32
2022-08-27T00:25:59.221Z,9.57
2022-08-27T00:28:31.927Z,8.10
2022-08-27T00:31:03.570Z,8.88
2022-08-27T00:33:36.753Z,9.02
2022-08-27T00:36:09.233Z,8.82
2022-08-27T00:38:41.835Z,8.60
2022-08-27T00:41:13.595Z,10.02
2022-08-27T00:43:58.255Z,8.82
2022-08-27T00:46:49.663Z,8.23
2022-08-27T00:49:26.392Z,8.77
2022-08-27T00:52:08.469Z,8.93
2022-08-27T00:54:39.841Z,8.63
2022-08-27T00:57:13.758Z,8.25
2022-08-27T00:59:45.464Z,8.45
2022-08-27T01:02:19.732Z,7.55
2022-08-27T01:04:56.120Z,8.43
2022-08-27T01:07:30.992Z,7.18
2022-08-27T01:10:07.152Z,8.87
2022-08-27T01:12:38.791Z,7.78
2022-08-27T01:15:16.917Z,7.40
2022-08-27T01:17:52.526Z,7.05
2022-08-27T01:20:48.989Z,7.32
2022-08-27T01:23:38.662Z,7.18
2022-08-27T01:26:14.648Z,6.57
2022-08-27T01:28:48.310Z,6.40
2022-08-27T01:31:20.223Z,7.65
2022-08-27T01:34:03.169Z,7.25
2022-08-27T01:36:34.540Z,6.90
2022-08-27T01:39:06.162Z,7.15
2022-08-27T01:41:37.543Z,6.20
2022-08-27T01:44:08.941Z,6.22
2022-08-27T01:46:40.579Z,7.18
2022-08-27T01:49:12.012Z,6.10
2022-08-27T01:51:43.636Z,6.60
2022-08-27T01:54:15.092Z,6.53
2022-08-27T01:56:46.685Z,7.20
2022-08-27T01:59:18.164Z,7.80
2022-08-27T02:01:50.315Z,6.45
2022-08-27T02:04:22.374Z,6.55
2022-08-27T02:06:54.578Z,7.38
2022-08-27T02:09:26.281Z,7.00
2022-08-27T02:11:57.900Z,5.97
2022-08-27T02:14:29.801Z,6.28
2022-08-27T02:17:01.650Z,6.97
2022-08-27T02:19:33.062Z,6.22
2022-08-27T02:22:04.553Z,5.25
2022-08-27T02:24:35.893Z,6.10
2022-08-27T02:27:07.876Z,5.75
2022-08-27T02:29:39.436Z,5.28
2022-08-27T02:32:23.879Z,6.85
2022-08-27T02:35:04.468Z,5.45
2022-08-27T02:37:37.884Z,6.32
2022-08-27T02:40:11.131Z,5.60
2022-08-27T02:42:43.792Z,5.20
2022-08-27T02:45:16.258Z,6.60
2022-08-27T02:47:48.470Z,5.95
2022-08-27T02:50:19.891Z,6.38
2022-08-27T02:52:51.264Z,6.43
2022-08-27T02:55:22.929Z,6.20
2022-08-27T02:57:54.864Z,7.22
2022-08-27T03:00:28.616Z,7.38
2022-08-27T03:03:01.133Z,6.70
2022-08-27T03:05:32.580Z,7.38
2022-08-27T03:08:05.518Z,8.30
2022-08-27T03:10:36.897Z,7.07
2022-08-27T03:13:09.021Z,7.05
2022-08-27T03:15:40.391Z,6.80
2022-08-27T03:18:21.531Z,7.00
2022-08-27T03:20:55.601Z,5.65
2022-08-27T03:23:29.470Z,7.25
2022-08-27T03:26:09.473Z,6.97
2022-08-27T03:28:40.945Z,7.28
2022-08-27T03:31:20.553Z,7.40
2022-08-27T03:33:56.696Z,8.02
2022-08-27T03:36:29.911Z,7.43
2022-08-27T03:39:01.374Z,7.90
2022-08-27T03:41:53.994Z,9.30
2022-08-27T03:44:24.414Z,8.18
2022-08-27T03:46:55.790Z,7.88
2022-08-27T03:49:27.117Z,8.57
2022-08-27T03:51:58.826Z,9.60
2022-08-27T03:54:31.673Z,9.52
2022-08-27T03:57:03.753Z,9.05
2022-08-27T03:59:35.915Z,8.10
2022-08-27T04:02:07.357Z,9.48
2022-08-27T04:04:38.953Z,9.45
2022-08-27T04:07:10.519Z,8.90
2022-08-27T04:09:42.427Z,9.52
2022-08-27T04:12:13.817Z,9.10
2022-08-27T04:14:45.372Z,9.82
2022-08-27T04:17:16.819Z,8.63
2022-08-27T04:19:48.325Z,8.95
2022-08-27T04:22:20.428Z,8.60
2022-08-27T04:24:51.782Z,9.43
2022-08-27T04:27:25.518Z,9.90
2022-08-27T04:29:58.393Z,9.98
2022-08-27T04:32:29.988Z,10.15
2022-08-27T04:35:01.516Z,10.23
2022-08-27T04:37:33.297Z,9.55
2022-08-27T04:40:05.036Z,10.20
2022-08-27T04:42:36.521Z,10.10
2022-08-27T04:45:08.486Z,9.75
2022-08-27T04:47:39.954Z,9.40
2022-08-27T04:50:11.351Z,9.18
2022-08-27T04:52:44.747Z,8.65
2022-08-27T04:55:16.199Z,8.18
2022-08-27T04:57:47.611Z,8.32
2022-08-27T05:00:19.248Z,8.40
2022-08-27T05:02:50.622Z,8.32
2022-08-27T05:05:23.635Z,8.45
2022-08-27T05:07:55.063Z,8.25
2022-08-27T05:10:26.427Z,7.85
2022-08-27T05:12:59.916Z,7.28
2022-08-27T05:15:31.576Z,9.95
2022-08-27T05:18:04.321Z,8.65
2022-08-27T05:20:46.670Z,8.70
2022-08-27T05:23:20.627Z,8.75
2022-08-27T05:25:53.865Z,8.48
2022-08-27T05:28:28.482Z,9.15
2022-08-27T05:31:06.824Z,9.10
2022-08-27T05:33:40.516Z,9.25
2022-08-27T05:36:21.654Z,8.82
2022-08-27T05:38:55.449Z,9.05
2022-08-27T05:41:34.240Z,9.38
2022-08-27T05:44:30.277Z,8.77
2022-08-27T05:47:00.755Z,8.07
2022-08-27T05:49:32.386Z,7.15
2022-08-27T05:52:08.218Z,7.00
2022-08-27T05:54:39.929Z,6.55
2022-08-27T05:57:11.446Z,6.07
2022-08-27T06:00:01.647Z,6.35
2022-08-27T06:02:37.146Z,6.70
2022-08-27T06:05:08.767Z,6.18
2022-08-27T06:07:40.185Z,5.82
2022-08-27T06:10:12.024Z,5.55
2022-08-27T06:12:43.395Z,5.80
2022-08-27T06:15:15.035Z,6.43
2022-08-27T06:17:46.374Z,5.82
2022-08-27T06:20:18.413Z,4.60
2022-08-27T06:22:49.893Z,4.53
2022-08-27T06:25:21.238Z,4.20
2022-08-27T06:27:52.640Z,3.63
2022-08-27T06:30:24.112Z,4.65
2022-08-27T06:32:55.562Z,3.97
2022-08-27T06:35:29.275Z,3.83
2022-08-27T06:38:02.555Z,3.65
2022-08-27T06:40:34.693Z,3.15
2022-08-27T06:43:06.279Z,3.10
2022-08-27T06:45:39.132Z,3.28
2022-08-27T06:48:10.616Z,3.53
2022-08-27T06:50:43.534Z,2.70
2022-08-27T06:53:15.058Z,3.55
2022-08-27T06:55:48.556Z,2.88
2022-08-27T06:58:20.258Z,2.80
2022-08-27T07:00:51.704Z,2.88
2022-08-27T07:03:23.103Z,3.13
2022-08-27T07:05:54.631Z,3.05
2022-08-27T07:08:26.098Z,2.50
2022-08-27T07:10:57.663Z,2.85
2022-08-27T07:13:30.076Z,3.95
2022-08-27T07:16:23.411Z,2.60
2022-08-27T07:18:59.457Z,2.25
2022-08-27T07:21:35.997Z,2.80
2022-08-27T07:24:09.001Z,2.75
2022-08-27T07:26:43.297Z,3.30
2022-08-27T07:29:15.258Z,2.15
2022-08-27T07:31:46.956Z,2.40
2022-08-27T07:34:18.314Z,2.67
2022-08-27T07:36:51.282Z,2.67
2022-08-27T07:39:22.607Z,2.42
2022-08-27T07:42:15.375Z,2.70
2022-08-27T07:44:46.784Z,3.33
2022-08-27T07:47:18.489Z,2.75
2022-08-27T07:49:50.149Z,3.20
2022-08-27T07:52:25.915Z,3.13
2022-08-27T07:54:58.289Z,3.25
2022-08-27T07:57:31.655Z,3.25
2022-08-27T08:00:04.800Z,3.25
2022-08-27T08:02:37.255Z,2.95
2022-08-27T08:05:09.969Z,3.28
2022-08-27T08:07:41.484Z,3.88
2022-08-27T08:10:12.992Z,3.63
2022-08-27T08:12:44.347Z,2.45
2022-08-27T08:15:17.313Z,3.08
2022-08-27T08:17:48.674Z,2.70
2022-08-27T08:20:31.256Z,3.13
2022-08-27T08:23:11.498Z,3.42
2022-08-27T08:25:42.965Z,2.78
2022-08-27T08:28:14.362Z,3.40
2022-08-27T08:30:47.631Z,3.90
2022-08-27T08:33:19.073Z,4.10
2022-08-27T08:35:50.553Z,4.22
2022-08-27T08:38:22.062Z,4.00
2022-08-27T08:40:55.276Z,3.22
2022-08-27T08:43:36.438Z,3.70
2022-08-27T08:46:17.186Z,3.30
2022-08-27T08:48:55.396Z,3.80
2022-08-27T08:51:32.726Z,3.65
2022-08-27T08:54:10.710Z,3.22
2022-08-27T08:57:01.093Z,4.57
2022-08-27T08:59:39.184Z,3.75
2022-08-27T09:02:14.534Z,4.00
2022-08-27T09:04:45.887Z,3.83
2022-08-27T09:07:34.456Z,3.83
2022-08-27T09:10:27.014Z,3.30
2022-08-27T09:13:07.998Z,4.05
2022-08-27T09:15:39.648Z,4.93
2022-08-27T09:18:14.749Z,5.05
2022-08-27T09:20:51.349Z,5.68
2022-08-27T09:23:31.016Z,4.15
2022-08-27T09:26:02.437Z,5.10
2022-08-27T09:28:52.604Z,5.38
2022-08-27T09:31:24.023Z,5.00
2022-08-27T09:33:57.219Z,5.45
2022-08-27T09:36:28.717Z,4.72
2022-08-27T09:39:04.223Z,6.28
2022-08-27T09:41:42.834Z,5.30
2022-08-27T09:44:18.624Z,6.18
2022-08-27T09:47:00.381Z,6.65
2022-08-27T09:49:36.593Z,7.93
2022-08-27T09:52:10.023Z,8.02
2022-08-27T09:54:46.498Z,9.73
2022-08-27T09:57:38.075Z,9.32
2022-08-27T10:00:16.131Z,9.40
2022-08-27T10:02:53.372Z,8.50
2022-08-27T10:05:32.160Z,9.05
2022-08-27T10:08:21.923Z,8.02
2022-08-27T10:11:00.756Z,7.53
2022-08-27T10:13:39.406Z,8.43
2022-08-27T10:16:52.350Z,7.32
2022-08-27T10:19:46.862Z,7.53
2022-08-27T10:22:31.903Z,7.65
2022-08-27T10:25:28.858Z,8.60
2022-08-27T10:28:36.756Z,7.75
2022-08-27T10:31:26.423Z,8.82
2022-08-27T10:34:21.030Z,8.00
2022-08-27T10:37:19.960Z,7.68
2022-08-27T10:40:04.472Z,6.85
2022-08-27T10:42:43.889Z,7.55
2022-08-27T10:45:39.344Z,7.75
2022-08-27T10:48:19.462Z,5.28
2022-08-27T10:51:08.887Z,5.43
2022-08-27T10:53:50.202Z,5.35
2022-08-27T10:57:03.637Z,6.03
2022-08-27T10:59:56.153Z,5.57
2022-08-27T11:02:37.266Z,4.55
2022-08-27T11:05:19.750Z,4.80
2022-08-27T11:08:05.149Z,5.38
2022-08-27T11:10:42.136Z,5.00
2022-08-27T11:13:22.148Z,4.32
2022-08-27T11:15:56.569Z,4.57
2022-08-27T11:18:42.426Z,5.00
2022-08-27T11:21:36.608Z,3.90
2022-08-27T11:24:33.103Z,5.03
2022-08-27T11:27:08.047Z,5.60
2022-08-27T11:29:49.562Z,5.43
2022-08-27T11:32:27.647Z,5.63
2022-08-27T11:35:19.778Z,5.82
2022-08-27T11:38:03.272Z,7.28
2022-08-27T11:40:55.435Z,6.63
2022-08-27T11:43:33.367Z,6.30
2022-08-27T11:46:08.529Z,5.68
2022-08-27T11:48:43.296Z,5.90
2022-08-27T11:51:34.052Z,5.80
2022-08-27T11:54:44.219Z,4.82
2022-08-27T11:57:39.177Z,5.72
2022-08-27T12:00:18.822Z,4.63
2022-08-27T12:02:58.970Z,4.45
2022-08-27T12:05:45.477Z,3.30
2022-08-27T12:08:22.737Z,2.90
2022-08-27T12:11:03.659Z,2.50
2022-08-27T12:13:50.540Z,2.60
2022-08-27T12:16:40.740Z,2.67
2022-08-27T12:19:33.177Z,2.70
2022-08-27T12:22:26.063Z,2.08
2022-08-27T12:24:59.000Z,1.77
2022-08-27T12:27:34.342Z,2.72
2022-08-27T12:30:21.030Z,2.35
2022-08-27T12:32:54.363Z,2.08
2022-08-27T12:35:32.569Z,2.38
2022-08-27T12:38:16.264Z,1.60
2022-08-27T12:40:53.947Z,1.52
2022-08-27T12:43:28.281Z,2.25
2022-08-27T12:46:19.231Z,1.50
2022-08-27T12:48:57.934Z,2.53
2022-08-27T12:51:37.981Z,1.77
2022-08-27T12:54:51.461Z,2.22
2022-08-27T12:57:36.767Z,1.67
2022-08-27T13:00:26.351Z,1.95
2022-08-27T13:03:16.642Z,1.25
2022-08-27T13:05:50.441Z,2.22
2022-08-27T13:08:28.300Z,2.13
2022-08-27T13:11:30.917Z,1.80
2022-08-27T13:14:19.868Z,1.45
2022-08-27T13:16:59.354Z,1.88
2022-08-27T13:19:34.190Z,1.85
2022-08-27T13:22:07.042Z,2.17
2022-08-27T13:24:47.844Z,1.70
2022-08-27T13:27:31.597Z,1.65
2022-08-27T13:30:10.946Z,1.20
2022-08-27T13:32:50.744Z,1.50
2022-08-27T13:35:23.072Z,1.67
2022-08-27T13:37:55.688Z,1.52
2022-08-27T13:40:34.435Z,2.17
2022-08-27T13:43:12.072Z,1.63
2022-08-27T13:45:49.576Z,1.10
2022-08-27T13:48:22.405Z,1.85
2022-08-27T13:50:57.576Z,1.85
2022-08-27T13:53:50.289Z,1.13
2022-08-27T13:56:27.614Z,1.70
2022-08-27T13:59:19.124Z,1.85
2022-08-27T14:02:10.969Z,1.88
2022-08-27T14:05:27.967Z,1.80
2022-08-27T14:08:13.731Z,1.40
2022-08-27T14:10:49.794Z,1.17
2022-08-27T14:13:24.016Z,1.55
2022-08-27T14:15:57.614Z,1.40
2022-08-27T14:18:57.237Z,0.90
2022-08-27T14:21:24.158Z,1.55
2022-08-27T14:23:56.176Z,1.20
2022-08-27T14:26:27.807Z,1.52
2022-08-27T14:28:59.221Z,1.33
2022-08-27T14:31:31.223Z,1.63
2022-08-27T14:34:02.732Z,1.27
2022-08-27T14:36:37.152Z,1.90
2022-08-27T14:39:10.190Z,1.67
2022-08-27T14:41:41.641Z,1.15
2022-08-27T14:44:13.404Z,1.35
2022-08-27T14:46:44.812Z,1.70
2022-08-27T14:49:30.469Z,1.33
2022-08-27T14:52:04.177Z,1.33
2022-08-27T14:54:37.212Z,1.27
2022-08-27T14:57:09.006Z,1.35
2022-08-27T14:59:40.399Z,1.88
2022-08-27T15:02:13.883Z,1.40
2022-08-27T15:04:47.842Z,1.58
2022-08-27T15:07:19.836Z,1.50
2022-08-27T15:09:55.327Z,1.40
2022-08-27T15:12:27.128Z,1.15
2022-08-27T15:14:58.631Z,1.50
2022-08-27T15:17:34.357Z,1.33
2022-08-27T15:20:10.265Z,1.95
2022-08-27T15:22:52.181Z,1.52
2022-08-27T15:25:23.601Z,0.90
2022-08-27T15:27:54.985Z,1.52
2022-08-27T15:30:28.833Z,1.70
2022-08-27T15:33:00.178Z,1.65
2022-08-27T15:35:31.617Z,1.10
2022-08-27T15:38:03.209Z,1.75
2022-08-27T15:40:36.357Z,1.13
2022-08-27T15:43:08.208Z,1.55
2022-08-27T15:45:39.558Z,1.85
2022-08-27T15:48:11.034Z,1.30
2022-08-27T15:50:43.118Z,1.35
2022-08-27T15:53:14.846Z,1.67
2022-08-27T15:55:46.179Z,1.30
2022-08-27T15:58:17.508Z,1.45
2022-08-27T16:00:48.956Z,1.55
2022-08-27T16:03:35.767Z,1.55
2022-08-27T16:06:08.787Z,1.50
2022-08-27T16:08:42.304Z,1.00
2022-08-27T16:11:14.056Z,1.77
2022-08-27T16:13:45.398Z,1.15
2022-08-27T16:16:22.579Z,1.88
2022-08-27T16:18:54.369Z,1.65
2022-08-27T16:21:25.706Z,1.25
2022-08-27T16:23:57.105Z,1.48
2022-08-27T16:26:28.661Z,1.73
2022-08-27T16:29:01.294Z,1.42
2022-08-27T16:31:34.815Z,1.52
2022-08-27T16:34:16.924Z,1.67
2022-08-27T16:36:48.322Z,1.52
2022-08-27T16:39:19.672Z,1.05
2022-08-27T16:41:51.246Z,1.70
2022-08-27T16:44:26.060Z,1.75
2022-08-27T16:46:57.613Z,1.20
2022-08-27T16:49:47.485Z,1.23
2022-08-27T16:52:23.456Z,1.38
2022-08-27T16:54:56.726Z,2.33
2022-08-27T16:57:28.104Z,1.77
2022-08-27T16:59:59.444Z,1.38
2022-08-27T17:02:34.811Z,1.50
2022-08-27T17:05:24.030Z,1.48
2022-08-27T17:07:59.386Z,1.85
2022-08-27T17:10:51.908Z,2.40
2022-08-27T17:13:28.261Z,2.20
2022-08-27T17:16:01.637Z,2.38
2022-08-27T17:18:34.788Z,1.63
2022-08-27T17:21:06.321Z,1.33
2022-08-27T17:23:41.211Z,2.10
2022-08-27T17:26:14.842Z,2.07
2022-08-27T17:28:46.280Z,2.28
2022-08-27T17:31:28.047Z,1.63
2022-08-27T17:34:01.219Z,1.90
2022-08-27T17:36:33.365Z,1.90
2022-08-27T17:39:04.746Z,2.20
2022-08-27T17:41:39.304Z,2.10
2022-08-27T17:44:31.904Z,1.70
2022-08-27T17:47:06.170Z,2.17
2022-08-27T17:49:37.972Z,2.40
2022-08-27T17:52:13.282Z,2.03
2022-08-27T17:54:48.001Z,2.40
2022-08-27T17:57:22.467Z,2.35
2022-08-27T17:59:54.663Z,2.58
2022-08-27T18:02:34.197Z,2.80
2022-08-27T18:05:09.929Z,2.20
2022-08-27T18:07:42.734Z,2.17
2022-08-27T18:10:17.507Z,2.40
2022-08-27T18:12:49.790Z,2.13
2022-08-27T18:15:25.261Z,2.10
2022-08-27T18:17:57.794Z,2.92
2022-08-27T18:20:30.629Z,3.03
2022-08-27T18:23:02.118Z,2.70
2022-08-27T18:25:36.334Z,3.38
2022-08-27T18:28:11.318Z,2.72
2022-08-27T18:30:44.622Z,2.83
2022-08-27T18:33:16.321Z,2.72
2022-08-27T18:35:47.689Z,2.65
2022-08-27T18:38:19.160Z,2.50
2022-08-27T18:40:51.777Z,2.95
2022-08-27T18:43:34.878Z,2.35
2022-08-27T18:46:07.083Z,2.70
2022-08-27T18:48:38.681Z,2.63
2022-08-27T18:51:13.935Z,2.47
2022-08-27T18:53:46.793Z,2.33
2022-08-27T18:56:19.561Z,2.90
2022-08-27T18:58:51.054Z,2.70
2022-08-27T19:01:26.278Z,2.87
2022-08-27T19:03:58.216Z,2.90
2022-08-27T19:06:29.937Z,2.53
2022-08-27T19:09:02.107Z,2.30
2022-08-27T19:11:33.474Z,2.43
2022-08-27T19:14:04.792Z,2.73
2022-08-27T19:16:45.851Z,2.77
2022-08-27T19:19:18.178Z,2.43
2022-08-27T19:21:51.699Z,2.97
2022-08-27T19:24:23.215Z,2.73
2022-08-27T19:26:54.891Z,2.33
2022-08-27T19:29:26.225Z,2.30
2022-08-27T19:34:28.999Z,2.97
2022-08-27T19:37:02.531Z,3.37
2022-08-27T19:39:36.527Z,2.30
2022-08-27T19:42:07.984Z,2.80
2022-08-27T19:44:39.474Z,2.37
2022-08-27T19:47:13.211Z,2.20
2022-08-27T19:49:49.589Z,2.70
2022-08-27T19:52:21.257Z,2.90
2022-08-27T19:55:12.518Z,2.17
2022-08-27T19:57:44.834Z,3.10
2022-08-27T20:00:19.326Z,2.30
2022-08-27T20:02:51.685Z,2.63
2022-08-27T20:05:23.211Z,2.93
2022-08-27T20:07:54.734Z,3.30
2022-08-27T20:10:36.725Z,2.97
2022-08-27T20:13:08.773Z,2.97
2022-08-27T20:15:40.666Z,2.60
2022-08-27T20:18:15.725Z,2.83
2022-08-27T20:20:47.218Z,2.90
2022-08-27T20:23:18.689Z,3.43
2022-08-27T20:25:52.230Z,2.53
2022-08-27T20:28:39.074Z,2.77
2022-08-27T20:31:11.495Z,2.40
2022-08-27T20:33:43.886Z,2.50
2022-08-27T20:36:15.578Z,2.47
2022-08-27T20:38:47.456Z,3.30
2022-08-27T20:41:19.092Z,3.37
2022-08-27T20:43:50.724Z,3.00
2022-08-27T20:46:27.093Z,2.73
2022-08-27T20:48:59.047Z,3.40
2022-08-27T20:51:30.498Z,2.87
2022-08-27T20:54:22.168Z,2.70
2022-08-27T20:56:53.863Z,2.70
2022-08-27T20:59:44.400Z,3.10
2022-08-27T21:02:22.189Z,2.43
2022-08-27T21:04:53.692Z,3.33
2022-08-27T21:07:25.283Z,2.50
2022-08-27T21:09:57.639Z,3.23
2022-08-27T21:12:30.895Z,3.33
2022-08-27T21:15:04.975Z,2.73
2022-08-27T21:17:36.645Z,3.43
2022-08-27T21:20:13.588Z,2.97
2022-08-27T21:22:45.076Z,3.70
2022-08-27T21:25:16.561Z,3.00
2022-08-27T21:27:47.940Z,3.60
2022-08-27T21:30:21.297Z,3.63
2022-08-27T21:32:56.358Z,3.37
2022-08-27T21:35:30.979Z,3.43
2022-08-27T21:38:02.428Z,3.23
2022-08-27T21:40:33.844Z,3.70
2022-08-27T21:43:05.267Z,3.27
2022-08-27T21:45:36.960Z,2.87
2022-08-27T21:48:08.641Z,2.97
2022-08-27T21:50:40.108Z,2.73
2022-08-27T21:53:11.614Z,3.00
2022-08-27T21:55:44.261Z,3.40
2022-08-27T21:58:15.746Z,2.90
2022-08-27T22:00:49.652Z,4.67
2022-08-27T22:03:22.664Z,3.63
2022-08-27T22:05:54.276Z,3.53
2022-08-27T22:08:26.345Z,3.27
2022-08-27T22:10:58.384Z,3.03
2022-08-27T22:13:29.938Z,2.77
2022-08-27T22:16:01.804Z,3.23
2022-08-27T22:18:33.760Z,3.20
2022-08-27T22:21:05.918Z,3.47
2022-08-27T22:23:37.447Z,2.73
2022-08-27T22:26:08.941Z,3.37
2022-08-27T22:28:40.588Z,3.77
2022-08-27T22:31:12.131Z,3.90
2022-08-27T22:33:43.639Z,2.83
2022-08-27T22:36:15.053Z,3.23
2022-08-27T22:38:46.600Z,3.10
2022-08-27T22:41:19.270Z,3.43
2022-08-27T22:43:56.681Z,3.10
2022-08-27T22:46:29.317Z,3.87
2022-08-27T22:49:01.028Z,3.03
2022-08-27T22:51:32.397Z,3.60
2022-08-27T22:54:03.894Z,4.23
2022-08-27T22:56:35.768Z,3.03
2022-08-27T22:59:07.544Z,3.60
2022-08-27T23:01:39.028Z,3.33
2022-08-27T23:04:11.183Z,2.83
2022-08-27T23:06:42.644Z,3.07
2022-08-27T23:09:14.047Z,3.40
2022-08-27T23:11:45.521Z,3.03
2022-08-27T23:14:16.987Z,3.30
2022-08-27T23:16:48.295Z,3.77
2022-08-27T23:19:19.830Z,3.90
2022-08-27T23:21:51.137Z,3.80
2022-08-27T23:24:22.515Z,3.63
2022-08-27T23:27:12.683Z,3.57
2022-08-27T23:29:46.991Z,3.70
2022-08-27T23:32:18.340Z,3.37
2022-08-27T23:34:49.899Z,4.17
2022-08-27T23:37:21.755Z,3.80
2022-08-27T23:39:53.863Z,4.00
2022-08-27T23:42:25.682Z,3.20
2022-08-27T23:44:57.304Z,3.20
2022-08-27T23:47:28.672Z,3.73
2022-08-27T23:50:00.488Z,4.03
2022-08-27T23:52:32.427Z,4.13
2022-08-27T23:55:05.207Z,3.53
2022-08-27T23:57:37.060Z,3.90
